createdAt,value
2022-11-30T00:00:38.127Z,4.13
2022-11-30T00:03:25.564Z,4.12
2022-11-30T00:05:58.436Z,4.13
2022-11-30T00:08:31.488Z,4.13
2022-11-30T00:11:08.636Z,4.13
2022-11-30T00:13:42.195Z,4.14
2022-11-30T00:16:15.496Z,4.11
2022-11-30T00:18:48.589Z,4.12
2022-11-30T00:21:21.753Z,4.10
2022-11-30T00:23:54.696Z,4.10
2022-11-30T00:26:27.677Z,4.10
2022-11-30T00:29:00.867Z,4.12
2022-11-30T00:31:33.751Z,4.10
2022-11-30T00:34:06.602Z,4.11
2022-11-30T00:36:39.454Z,4.10
2022-11-30T00:39:12.627Z,4.08
2022-11-30T00:41:45.539Z,4.10
2022-11-30T00:44:18.379Z,4.13
2022-11-30T00:46:51.449Z,4.13
2022-11-30T00:49:24.290Z,4.10
2022-11-30T00:51:57.190Z,4.09
2022-11-30T00:54:30.638Z,4.07
2022-11-30T00:57:03.675Z,4.06
2022-11-30T00:59:36.577Z,3.98
2022-11-30T01:02:10.165Z,4.05
2022-11-30T01:04:45.099Z,4.04
2022-11-30T01:07:21.229Z,4.03
2022-11-30T01:09:54.309Z,4.04
2022-11-30T01:12:27.183Z,4.02
2022-11-30T01:15:00.177Z,4.02
2022-11-30T01:17:33.157Z,4.02
2022-11-30T01:20:06.647Z,4.01
2022-11-30T01:22:39.628Z,4.00
2022-11-30T01:25:12.983Z,3.99
2022-11-30T01:27:49.777Z,3.97
2022-11-30T01:30:22.905Z,3.97
2022-11-30T01:32:55.789Z,3.97
2022-11-30T01:35:28.765Z,3.97
2022-11-30T01:38:01.612Z,3.97
2022-11-30T01:40:34.721Z,3.94
2022-11-30T01:43:13.498Z,3.93
2022-11-30T01:45:46.832Z,3.88
2022-11-30T01:48:19.931Z,3.88
2022-11-30T01:50:52.969Z,3.86
2022-11-30T01:53:27.116Z,3.83
2022-11-30T01:56:00.483Z,3.80
2022-11-30T01:58:35.180Z,3.80
2022-11-30T02:01:08.348Z,3.80
2022-11-30T02:03:49.110Z,3.77
2022-11-30T02:06:23.343Z,3.73
2022-11-30T02:08:57.750Z,3.73
2022-11-30T02:11:31.316Z,3.72
2022-11-30T02:14:20.131Z,3.73
2022-11-30T02:17:03.544Z,3.72
2022-11-30T02:20:00.324Z,3.71
2022-11-30T02:22:50.589Z,3.69
2022-11-30T02:25:35.870Z,3.65
2022-11-30T02:28:25.115Z,3.63
2022-11-30T02:31:01.515Z,3.63
2022-11-30T02:33:36.110Z,3.64
2022-11-30T02:36:11.161Z,3.64
2022-11-30T02:38:44.512Z,3.65
2022-11-30T02:41:17.497Z,3.64
2022-11-30T02:43:50.596Z,3.63
2022-11-30T02:46:31.075Z,3.64
2022-11-30T02:49:11.546Z,3.64
2022-11-30T02:51:46.801Z,3.66
2022-11-30T02:54:21.015Z,3.66
2022-11-30T02:56:53.946Z,3.65
2022-11-30T02:59:26.959Z,3.62
2022-11-30T03:02:01.872Z,3.63
2022-11-30T03:04:34.948Z,3.64
2022-11-30T03:07:07.742Z,3.64
2022-11-30T03:09:40.734Z,3.64
2022-11-30T03:12:13.625Z,3.65
2022-11-30T03:14:46.573Z,3.66
2022-11-30T03:17:21.388Z,3.65
2022-11-30T03:19:54.436Z,3.66
2022-11-30T03:22:27.262Z,3.68
2022-11-30T03:25:00.264Z,3.68
2022-11-30T03:27:33.336Z,3.67
2022-11-30T03:30:08.089Z,3.67
2022-11-30T03:32:41.114Z,3.67
2022-11-30T03:35:14.063Z,3.65
2022-11-30T03:37:48.459Z,3.63
2022-11-30T03:40:21.565Z,3.64
2022-11-30T03:42:54.427Z,3.64
2022-11-30T03:45:27.537Z,3.65
2022-11-30T03:48:00.353Z,3.64
2022-11-30T03:50:33.280Z,3.64
2022-11-30T03:53:06.316Z,3.64
2022-11-30T03:55:39.414Z,3.62
2022-11-30T03:58:12.392Z,3.61
2022-11-30T04:00:45.615Z,3.60
2022-11-30T04:03:21.653Z,3.60
2022-11-30T04:05:54.436Z,3.61
2022-11-30T04:08:27.602Z,3.58
2022-11-30T04:11:02.384Z,3.57
2022-11-30T04:13:36.870Z,3.57
2022-11-30T04:16:10.368Z,3.57
2022-11-30T04:18:43.392Z,3.59
2022-11-30T04:21:16.258Z,3.58
2022-11-30T04:23:49.408Z,3.59
2022-11-30T04:26:25.712Z,3.58
2022-11-30T04:29:01.198Z,3.57
2022-11-30T04:31:37.281Z,3.58
2022-11-30T04:34:11.433Z,3.57
2022-11-30T04:36:44.582Z,3.57
2022-11-30T04:39:18.165Z,3.54
2022-11-30T04:41:51.434Z,3.54
2022-11-30T04:44:24.518Z,3.51
2022-11-30T04:46:57.418Z,3.49
2022-11-30T04:49:30.339Z,3.49
2022-11-30T04:52:03.250Z,3.50
2022-11-30T04:54:36.432Z,3.49
2022-11-30T04:57:09.544Z,3.50
2022-11-30T04:59:42.889Z,3.49
2022-11-30T05:02:15.822Z,3.49
2022-11-30T05:04:49.238Z,3.50
2022-11-30T05:07:22.746Z,3.49
2022-11-30T05:09:56.176Z,3.46
2022-11-30T05:12:29.185Z,3.49
2022-11-30T05:15:02.174Z,3.49
2022-11-30T05:17:35.258Z,3.50
2022-11-30T05:20:23.617Z,3.47
2022-11-30T05:22:59.584Z,3.46
2022-11-30T05:25:37.672Z,3.46
2022-11-30T05:28:11.087Z,3.43
2022-11-30T05:30:57.378Z,3.42
2022-11-30T05:33:30.689Z,3.41
2022-11-30T05:36:10.206Z,3.39
2022-11-30T05:38:43.790Z,3.34
2022-11-30T05:41:16.831Z,3.36
2022-11-30T05:43:49.965Z,3.35
2022-11-30T05:46:24.052Z,3.35
2022-11-30T05:48:57.702Z,3.34
2022-11-30T05:51:34.161Z,3.32
2022-11-30T05:54:07.508Z,3.32
2022-11-30T05:56:40.676Z,3.33
2022-11-30T05:59:14.560Z,3.32
2022-11-30T06:01:47.708Z,3.31
2022-11-30T06:04:22.062Z,3.30
2022-11-30T06:06:55.986Z,3.30
2022-11-30T06:09:34.918Z,3.29
2022-11-30T06:12:10.799Z,3.28
2022-11-30T06:14:48.151Z,3.26
2022-11-30T06:17:38.194Z,3.25
2022-11-30T06:20:12.682Z,3.25
2022-11-30T06:22:49.858Z,3.25
2022-11-30T06:25:22.857Z,3.25
2022-11-30T06:27:55.974Z,3.26
2022-11-30T06:30:39.486Z,3.25
2022-11-30T06:33:12.577Z,3.27
2022-11-30T06:35:49.108Z,3.28
2022-11-30T06:38:26.372Z,3.29
2022-11-30T06:41:22.206Z,3.31
2022-11-30T06:43:55.130Z,3.31
2022-11-30T06:46:28.435Z,3.32
2022-11-30T06:49:02.827Z,3.32
2022-11-30T06:51:41.358Z,3.33
2022-11-30T06:59:29.744Z,3.32
2022-11-30T07:02:22.310Z,3.36
2022-11-30T07:05:34.797Z,3.37
2022-11-30T07:08:18.603Z,3.38
2022-11-30T07:10:51.942Z,3.41
2022-11-30T07:13:25.424Z,3.42
2022-11-30T07:16:27.213Z,3.44
2022-11-30T07:19:23.613Z,3.44
2022-11-30T07:21:59.497Z,3.47
2022-11-30T07:25:35.134Z,3.49
2022-11-30T07:28:40.305Z,3.52
2022-11-30T07:32:04.936Z,3.52
2022-11-30T07:38:51.834Z,3.59
2022-11-30T07:45:05.170Z,3.64
2022-11-30T07:47:51.976Z,3.67
2022-11-30T07:50:24.984Z,3.67
2022-11-30T07:57:01.049Z,3.68
2022-11-30T07:59:34.141Z,3.68
2022-11-30T08:02:07.591Z,3.69
2022-11-30T08:04:43.665Z,3.69
2022-11-30T08:07:22.591Z,3.71
2022-11-30T08:09:55.686Z,3.71
2022-11-30T08:12:45.198Z,3.73
2022-11-30T08:15:46.002Z,3.73
2022-11-30T08:18:19.349Z,3.76
2022-11-30T08:21:00.143Z,3.78
2022-11-30T08:23:34.971Z,3.78
2022-11-30T08:26:11.866Z,3.77
2022-11-30T08:28:46.619Z,3.75
2022-11-30T08:31:22.876Z,3.75
2022-11-30T08:33:58.680Z,3.75
2022-11-30T08:36:33.049Z,3.78
2022-11-30T08:39:07.965Z,3.80
2022-11-30T08:41:43.622Z,3.83
2022-11-30T08:44:55.242Z,3.83
2022-11-30T08:47:59.060Z,3.85
2022-11-30T08:50:32.072Z,3.88
2022-11-30T08:53:06.615Z,3.91
2022-11-30T08:55:39.762Z,3.93
2022-11-30T08:58:13.049Z,3.94
2022-11-30T09:00:46.062Z,3.94
2022-11-30T09:03:18.977Z,3.94
2022-11-30T09:05:51.899Z,3.96
2022-11-30T09:08:24.922Z,3.96
2022-11-30T09:10:57.862Z,3.95
2022-11-30T09:13:30.786Z,3.97
2022-11-30T09:16:03.988Z,4.00
2022-11-30T09:18:37.793Z,4.02
2022-11-30T09:21:14.693Z,4.05
2022-11-30T09:23:48.903Z,4.05
2022-11-30T09:26:25.483Z,4.06
2022-11-30T09:28:58.584Z,4.06
2022-11-30T09:31:31.588Z,4.10
2022-11-30T09:34:04.569Z,4.12
2022-11-30T09:36:37.572Z,4.13
2022-11-30T09:39:13.423Z,4.13
2022-11-30T09:42:06.115Z,4.13
2022-11-30T09:44:41.777Z,4.15
2022-11-30T09:47:35.846Z,4.15
2022-11-30T09:50:16.295Z,4.18
2022-11-30T09:52:54.893Z,4.20
2022-11-30T09:55:35.448Z,4.20
2022-11-30T09:58:13.537Z,4.22
2022-11-30T10:00:46.337Z,4.25
2022-11-30T10:03:21.096Z,4.29
2022-11-30T10:06:02.054Z,4.30
2022-11-30T10:08:51.021Z,4.32
2022-11-30T10:11:48.081Z,4.33
2022-11-30T10:14:46.032Z,4.33
2022-11-30T10:17:31.416Z,4.34
2022-11-30T10:20:26.129Z,4.37
2022-11-30T10:23:18.836Z,4.36
2022-11-30T10:25:54.229Z,4.34
2022-11-30T10:28:46.974Z,4.31
2022-11-30T10:31:22.790Z,4.33
2022-11-30T10:34:16.942Z,4.33
2022-11-30T10:36:54.709Z,4.33
2022-11-30T10:39:33.754Z,4.33
2022-11-30T10:42:12.475Z,4.35
2022-11-30T10:52:39.473Z,4.36
2022-11-30T10:55:23.054Z,4.36
2022-11-30T10:58:08.331Z,4.36
2022-11-30T11:00:41.558Z,4.35
2022-11-30T11:03:28.780Z,4.35
2022-11-30T11:06:16.365Z,4.37
2022-11-30T11:08:55.002Z,4.37
2022-11-30T11:11:35.976Z,4.39
2022-11-30T11:14:34.885Z,4.42
2022-11-30T11:17:26.489Z,4.41
2022-11-30T11:19:59.350Z,4.38
2022-11-30T11:22:35.790Z,4.38
2022-11-30T11:25:22.260Z,4.38
2022-11-30T11:28:02.844Z,4.37
2022-11-30T11:30:38.726Z,4.36
2022-11-30T11:33:23.374Z,4.38
2022-11-30T11:36:14.704Z,4.39
2022-11-30T11:38:53.478Z,4.42
2022-11-30T11:41:31.552Z,4.43
2022-11-30T11:44:07.894Z,4.44
2022-11-30T11:46:56.702Z,4.46
2022-11-30T11:49:32.738Z,4.47
2022-11-30T11:52:08.791Z,4.46
2022-11-30T11:58:54.261Z,4.44
2022-11-30T12:01:46.919Z,4.44
2022-11-30T12:04:42.385Z,4.44
2022-11-30T12:11:26.789Z,4.45
2022-11-30T12:14:01.939Z,4.48
2022-11-30T12:16:45.927Z,4.52
2022-11-30T12:19:23.430Z,4.53
2022-11-30T12:22:11.430Z,4.53
2022-11-30T12:25:17.113Z,4.54
2022-11-30T12:27:59.409Z,4.57
2022-11-30T12:30:41.744Z,4.57
2022-11-30T12:33:43.376Z,4.59
2022-11-30T12:36:50.075Z,4.59
2022-11-30T12:39:34.963Z,4.59
2022-11-30T12:42:18.880Z,4.60
2022-11-30T12:45:05.867Z,4.62
2022-11-30T12:47:55.336Z,4.63
2022-11-30T12:50:46.404Z,4.64
2022-11-30T12:53:28.574Z,4.66
2022-11-30T12:56:13.830Z,4.64
2022-11-30T12:58:56.309Z,4.64
2022-11-30T13:01:51.864Z,4.63
2022-11-30T13:04:30.844Z,4.63
2022-11-30T13:07:09.639Z,4.65
2022-11-30T13:09:49.300Z,4.67
2022-11-30T13:12:26.970Z,4.68
2022-11-30T13:15:05.030Z,4.67
2022-11-30T13:17:39.868Z,4.65
2022-11-30T13:20:27.544Z,4.64
2022-11-30T13:23:07.265Z,4.63
2022-11-30T13:28:59.615Z,4.64
2022-11-30T13:31:40.701Z,4.64
2022-11-30T13:34:28.511Z,4.64
2022-11-30T13:37:10.269Z,4.64
2022-11-30T13:39:57.501Z,4.64
2022-11-30T13:42:51.772Z,4.62
2022-11-30T13:45:36.631Z,4.62
2022-11-30T13:48:35.777Z,4.58
2022-11-30T13:51:09.627Z,4.55
2022-11-30T13:53:44.470Z,4.52
2022-11-30T13:56:43.378Z,4.50
2022-11-30T14:00:33.739Z,4.44
2022-11-30T14:07:11.751Z,4.40
2022-11-30T14:10:30.471Z,4.36
2022-11-30T14:13:24.873Z,4.36
2022-11-30T14:16:03.560Z,4.34
2022-11-30T14:18:45.563Z,4.34
2022-11-30T14:21:27.756Z,4.31
2022-11-30T14:24:04.861Z,4.30
2022-11-30T14:26:45.365Z,4.26
2022-11-30T14:29:22.141Z,4.25
2022-11-30T14:31:59.849Z,4.22
2022-11-30T14:34:37.634Z,4.19
2022-11-30T14:37:23.177Z,4.17
2022-11-30T14:40:03.215Z,4.15
2022-11-30T14:42:37.894Z,4.14
2022-11-30T14:45:20.676Z,4.10
2022-11-30T14:48:06.358Z,4.11
2022-11-30T14:50:44.098Z,4.09
2022-11-30T14:53:31.237Z,4.08
2022-11-30T14:56:15.095Z,4.07
2022-11-30T14:58:54.824Z,4.07
2022-11-30T15:01:30.319Z,4.07
2022-11-30T15:04:13.668Z,4.06
2022-11-30T15:06:54.073Z,4.05
2022-11-30T15:09:31.898Z,4.04
2022-11-30T15:12:40.087Z,4.03
2022-11-30T15:15:51.124Z,4.01
2022-11-30T15:18:27.717Z,3.99
2022-11-30T15:21:46.512Z,3.98
2022-11-30T15:24:41.968Z,3.94
2022-11-30T15:27:23.006Z,3.95
2022-11-30T15:30:06.858Z,3.96
2022-11-30T15:32:40.158Z,3.96
2022-11-30T15:35:23.369Z,3.93
2022-11-30T15:37:58.551Z,3.93
2022-11-30T15:40:36.592Z,3.92
2022-11-30T15:43:23.777Z,3.90
2022-11-30T15:45:58.549Z,3.87
2022-11-30T15:48:39.479Z,3.85
2022-11-30T15:51:53.205Z,3.85
2022-11-30T15:54:53.348Z,3.85
2022-11-30T15:57:29.001Z,3.84
2022-11-30T16:00:20.536Z,3.84
2022-11-30T16:03:08.369Z,3.81
2022-11-30T16:05:42.050Z,3.78
2022-11-30T16:08:21.182Z,3.76
2022-11-30T16:10:55.303Z,3.71
2022-11-30T16:13:33.049Z,3.69
2022-11-30T16:16:15.557Z,3.66
2022-11-30T16:18:50.225Z,3.63
2022-11-30T16:22:05.833Z,3.60
2022-11-30T16:24:46.594Z,3.58
2022-11-30T16:27:40.729Z,3.56
2022-11-30T16:30:21.917Z,3.56
2022-11-30T16:32:55.032Z,3.54
2022-11-30T16:35:31.847Z,3.55
2022-11-30T16:38:06.844Z,3.55
2022-11-30T16:40:40.769Z,3.54
2022-11-30T16:43:16.058Z,3.52
2022-11-30T16:45:51.244Z,3.51
2022-11-30T16:48:24.268Z,3.51
2022-11-30T16:50:57.988Z,3.49
2022-11-30T16:53:31.020Z,3.46
2022-11-30T16:56:04.583Z,3.46
2022-11-30T16:58:37.327Z,3.45
2022-11-30T17:01:18.026Z,3.43
2022-11-30T17:03:53.534Z,3.43
2022-11-30T17:06:26.967Z,3.43
2022-11-30T17:08:59.767Z,3.41
2022-11-30T17:11:36.532Z,3.42
2022-11-30T17:14:11.739Z,3.40
2022-11-30T17:16:48.768Z,3.38
2022-11-30T17:19:24.885Z,3.32
2022-11-30T17:21:58.099Z,3.31
2022-11-30T17:24:31.835Z,3.31
2022-11-30T17:27:05.925Z,3.31
2022-11-30T17:29:43.390Z,3.30
2022-11-30T17:32:18.217Z,3.28
2022-11-30T17:34:53.584Z,3.27
2022-11-30T17:37:32.528Z,3.27
2022-11-30T17:40:08.588Z,3.25
2022-11-30T17:42:41.893Z,3.23
2022-11-30T17:45:16.786Z,3.23
2022-11-30T17:47:49.743Z,3.21
2022-11-30T17:50:22.646Z,3.22
2022-11-30T17:52:59.885Z,3.22
2022-11-30T17:55:33.017Z,3.21
2022-11-30T17:58:07.861Z,3.20
2022-11-30T18:00:40.843Z,3.19
2022-11-30T18:03:13.841Z,3.17
2022-11-30T18:05:47.072Z,3.16
2022-11-30T18:08:38.030Z,3.15
2022-11-30T18:11:55.095Z,3.14
2022-11-30T18:14:47.670Z,3.09
2022-11-30T18:18:02.907Z,3.03
2022-11-30T18:20:50.793Z,3.02
2022-11-30T18:23:42.588Z,3.02
2022-11-30T18:26:38.627Z,2.99
2022-11-30T18:29:22.468Z,2.98
2022-11-30T18:32:01.013Z,2.96
2022-11-30T18:34:34.136Z,2.96
2022-11-30T18:37:07.384Z,2.92
2022-11-30T18:39:40.552Z,2.90
2022-11-30T18:42:14.352Z,2.88
2022-11-30T18:44:47.593Z,2.87
2022-11-30T18:47:22.695Z,2.84
2022-11-30T18:49:55.567Z,2.83
2022-11-30T18:52:29.043Z,2.81
2022-11-30T18:55:01.940Z,2.78
2022-11-30T18:57:37.867Z,2.76
2022-11-30T19:00:12.845Z,2.75
2022-11-30T19:02:45.872Z,2.75
2022-11-30T19:05:32.995Z,2.75
2022-11-30T19:08:09.169Z,2.76
2022-11-30T19:10:42.935Z,2.75
2022-11-30T19:13:15.838Z,2.74
2022-11-30T19:15:48.625Z,2.75
2022-11-30T19:18:23.297Z,2.75
2022-11-30T19:20:56.933Z,2.73
2022-11-30T19:23:30.016Z,2.72
2022-11-30T19:26:05.637Z,2.72
2022-11-30T19:28:40.301Z,2.72
2022-11-30T19:31:15.096Z,2.70
2022-11-30T19:33:49.666Z,2.69
2022-11-30T19:36:24.481Z,2.68
2022-11-30T19:38:59.136Z,2.67
2022-11-30T19:41:32.172Z,2.68
2022-11-30T19:44:05.295Z,2.66
2022-11-30T19:46:38.559Z,2.66
2022-11-30T19:49:13.193Z,2.64
2022-11-30T19:51:46.184Z,2.61
2022-11-30T19:54:19.053Z,2.60
2022-11-30T19:56:52.011Z,2.60
2022-11-30T19:59:25.022Z,2.59
2022-11-30T20:02:00.330Z,2.57
2022-11-30T20:04:33.273Z,2.60
2022-11-30T20:07:06.255Z,2.58
2022-11-30T20:09:39.260Z,2.59
2022-11-30T20:12:13.620Z,2.61
2022-11-30T20:14:48.752Z,2.59
2022-11-30T20:17:22.184Z,2.57
2022-11-30T20:19:55.228Z,2.55
2022-11-30T20:22:28.429Z,2.55
2022-11-30T20:25:01.206Z,2.54
2022-11-30T20:27:35.918Z,2.54
2022-11-30T20:30:11.391Z,2.53
2022-11-30T20:32:44.369Z,2.54
2022-11-30T20:35:17.540Z,2.54
2022-11-30T20:37:52.467Z,2.52
2022-11-30T20:40:25.624Z,2.49
2022-11-30T20:42:58.627Z,2.46
2022-11-30T20:45:32.127Z,2.43
2022-11-30T20:48:05.124Z,2.43
2022-11-30T20:50:38.287Z,2.42
2022-11-30T20:53:11.257Z,2.39
2022-11-30T20:55:44.206Z,2.37
2022-11-30T20:58:17.318Z,2.37
2022-11-30T21:00:53.657Z,2.37
2022-11-30T21:03:28.377Z,2.35
2022-11-30T21:06:05.099Z,2.35
2022-11-30T21:08:39.662Z,2.33
2022-11-30T21:11:15.411Z,2.32
2022-11-30T21:13:50.734Z,2.32
2022-11-30T21:16:28.042Z,2.31
2022-11-30T21:19:02.670Z,2.29
2022-11-30T21:21:37.313Z,2.27
2022-11-30T21:24:12.991Z,2.28
2022-11-30T21:26:46.582Z,2.25
2022-11-30T21:29:20.605Z,2.25
2022-11-30T21:31:53.769Z,2.25
2022-11-30T21:34:26.983Z,2.23
2022-11-30T21:36:59.933Z,2.22
2022-11-30T21:39:35.147Z,2.20
2022-11-30T21:42:08.195Z,2.18
2022-11-30T21:44:41.153Z,2.19
2022-11-30T21:47:15.128Z,2.19
2022-11-30T21:49:48.202Z,2.22
2022-11-30T21:52:21.540Z,2.22
2022-11-30T21:54:54.626Z,2.22
2022-11-30T21:57:27.359Z,2.21
2022-11-30T22:00:00.234Z,2.20
2022-11-30T22:02:34.024Z,2.20
2022-11-30T22:05:09.248Z,2.17
2022-11-30T22:07:42.636Z,2.17
2022-11-30T22:10:16.081Z,2.15
2022-11-30T22:12:49.171Z,2.14
2022-11-30T22:15:22.161Z,2.14
2022-11-30T22:17:56.268Z,2.18
2022-11-30T22:20:29.236Z,2.19
2022-11-30T22:23:02.297Z,2.21
2022-11-30T22:25:35.264Z,2.18
2022-11-30T22:28:09.714Z,2.18
2022-11-30T22:30:43.483Z,2.19
2022-11-30T22:33:21.435Z,2.18
2022-11-30T22:35:55.274Z,2.18
2022-11-30T22:38:28.447Z,2.16
2022-11-30T22:41:09.826Z,2.17
2022-11-30T22:43:43.023Z,2.15
2022-11-30T22:46:21.704Z,2.11
2022-11-30T22:48:56.329Z,2.09
2022-11-30T22:51:31.331Z,2.06
2022-11-30T22:54:04.745Z,2.03
2022-11-30T22:56:40.834Z,2.01
2022-11-30T22:59:16.864Z,2.01
2022-11-30T23:01:52.619Z,2.03
2022-11-30T23:04:26.147Z,2.03
2022-11-30T23:06:59.390Z,2.00
2022-11-30T23:09:36.850Z,2.01
2022-11-30T23:12:10.447Z,2.03
2022-11-30T23:14:45.460Z,2.00
2022-11-30T23:17:18.495Z,1.99
2022-11-30T23:19:51.243Z,1.97
2022-11-30T23:22:24.213Z,1.97
2022-11-30T23:24:58.396Z,1.98
2022-11-30T23:27:31.517Z,1.98
2022-11-30T23:30:05.034Z,1.99
2022-11-30T23:32:38.114Z,2.00
2022-11-30T23:35:11.921Z,2.00
2022-11-30T23:37:44.979Z,2.01
2022-11-30T23:40:18.527Z,2.02
2022-11-30T23:42:52.542Z,2.01
2022-11-30T23:45:25.734Z,2.02
2022-11-30T23:47:58.683Z,2.01
2022-11-30T23:50:31.649Z,2.00
2022-11-30T23:53:04.542Z,1.98
2022-11-30T23:55:37.818Z,1.95
2022-11-30T23:58:11.182Z,1.92
